Aviation Digital Data Service (ADDS)

Output produced by METARs form (0349 UTC 20 February 2018)
found at http://www.aviationweather.gov/adds/metars/
 
K5A6 200335Z AUTO 17007KT 10SM CLR 21/16 A3011 RMK AO2 T02080160
K5A6 200315Z AUTO 17008KT 10SM CLR 21/16 A3010 RMK AO2 T02090157
K5A6 200255Z AUTO 16008KT 10SM CLR 21/15 A3010 RMK AO2 T02070152
K5A6 200235Z AUTO 15007KT 10SM CLR 21/14 A3009 RMK AO2 T02050144
K5A6 200215Z AUTO 14005KT 10SM CLR 21/14 A3009 RMK AO2 T02080141
K5A6 200155Z AUTO 15004KT 10SM CLR 20/14 A3008 RMK AO2 T02020135
K5A6 200135Z AUTO 15004KT 10SM CLR 21/14 A3008 RMK AO2 T02100136
K5A6 200115Z AUTO 15005KT 10SM CLR 21/14 A3007 RMK AO2 T02120135
K5A6 200055Z AUTO 14005KT 10SM CLR 21/13 A3007 RMK AO2 T02100133
K5A6 200035Z AUTO 13004KT 10SM CLR 21/13 A3007 RMK AO2 T02130131
K5A6 200015Z AUTO 16005KT 10SM CLR 23/13 A3007 RMK AO2 T02250131
K5A6 192355Z AUTO 15005KT 10SM CLR 23/13 A3007 RMK AO2 T02310131 10262 20228
K5A6 192335Z AUTO 17007KT 10SM CLR 24/13 A3007 RMK AO2 T02350131
K5A6 192315Z AUTO 18008KT 10SM CLR 24/13 A3007 RMK AO2 T02430130
K5A6 192250Z AUTO 18011G14KT 10SM CLR 25/13 A3007 RMK AO2 T02500129
K5A6 192235Z AUTO 17007G16KT 10SM SCT060 26/13 A3006 RMK AO2 T02550128
K5A6 192215Z AUTO 18012G18KT 10SM SCT060 26/13 A3006 RMK AO2 T02600130
K5A6 192155Z AUTO 20010G18KT 10SM SCT060 25/12 A3006 RMK AO2 T02520123
K5A6 192130Z AUTO 17012G18KT 10SM BKN060 26/13 A3007 RMK AO2 T02570130
K5A6 192115Z AUTO 18009G21KT 10SM SCT060 26/13 A3007 RMK AO2 T02600130
K5A6 192050Z AUTO 20013G21KT 10SM BKN060 26/13 A3007 RMK AO2 T02600131
K5A6 192035Z AUTO 20013G21KT 10SM SCT050 SCT065 26/13 A3007 RMK AO2 T02560129
K5A6 192015Z AUTO 18012G17KT 10SM BKN050 BKN065 25/15 A3007 RMK AO2 T02490149
K5A6 191955Z AUTO 19013G19KT 10SM SCT049 SCT065 25/15 A3008 RMK AO2 T02490147
K5A6 191935Z AUTO 21012G21KT 10SM SCT047 SCT055 BKN065 25/15 A3008 RMK AO2 T02480146
K5A6 191915Z AUTO 19012G17KT 10SM SCT045 SCT055 25/15 A3009 RMK AO2 T02460154
K5A6 191855Z AUTO 20012G20KT 10SM SCT040 SCT050 25/15 A3010 RMK AO2 T02480153
K5A6 191835Z AUTO 19012G17KT 10SM SCT036 SCT047 BKN050 24/16 A3010 RMK AO2 T02370159
K5A6 191815Z AUTO 18011G17KT 10SM SCT030 SCT038 BKN044 24/17 A3012 RMK AO2 T02360165
K5A6 191755Z AUTO 16011G16KT 10SM BKN028 BKN036 BKN045 23/17 A3013 RMK AO2 T02300169 10230 20144
K5A6 191735Z AUTO 17011G19KT 150V210 10SM BKN024 BKN031 BKN055 22/17 A3015 RMK AO2 T02200168
K5A6 191715Z AUTO 19015G19KT 10SM BKN022 BKN031 21/17 A3016 RMK AO2 T02130167
K5A6 191655Z AUTO 17013G17KT 10SM BKN021 BKN026 21/17 A3017 RMK AO2 T02130171
K5A6 191635Z AUTO 16013G17KT 10SM BKN017 BKN023 21/18 A3017 RMK AO2 T02050175
K5A6 191615Z AUTO 20008G15KT 10SM BKN015 BKN022 20/18 A3018 RMK AO2 T01980175
K5A6 191555Z AUTO 19009G16KT 10SM OVC013 20/18 A3018 RMK AO2 T01950175
K5A6 191535Z AUTO 17009G17KT 10SM OVC011 19/18 A3018 RMK AO2 T01870176
K5A6 191515Z AUTO 16008KT 10SM BKN009 OVC019 18/18 A3018 RMK AO2 T01830177
K5A6 191455Z AUTO 17008KT 10SM SCT009 OVC019 18/18 A3018 RMK AO2 T01760176
K5A6 191435Z AUTO 16008KT 10SM BKN009 OVC017 17/17 A3018 RMK AO2 T01720172
K5A6 191415Z AUTO 17006KT 10SM SCT009 OVC017 17/17 A3018 RMK AO2 T01680168
K5A6 191355Z AUTO 18010G14KT 10SM SCT007 OVC015 16/16 A3017 RMK AO2 T01610161
K5A6 191335Z AUTO 17009KT 10SM BKN005 OVC013 16/16 A3017 RMK AO2 T01560156
K5A6 191315Z AUTO 17003KT 7SM BKN005 BKN013 15/15 A3016 RMK AO2 T01520152
K5A6 191255Z AUTO 17004KT 7SM BKN005 OVC013 15/15 A3016 RMK AO2 T01510151
K5A6 191235Z AUTO 18005KT 7SM OVC005 15/15 A3016 RMK AO2 T01480148
K5A6 191215Z AUTO 19008KT 7SM OVC005 15/15 A3016 RMK AO2 T01450145
K5A6 191155Z AUTO 19008KT 10SM OVC007 14/14 A3015 RMK AO2 T01430143 10147 20119
K5A6 191135Z AUTO 18005KT 5SM BR OVC011 13/13 A3015 RMK AO2 T01310131
K5A6 191115Z AUTO 00000KT 3/4SM BR BKN013 13/13 A3014 RMK AO2 T01280128
K5A6 191055Z AUTO 00000KT 1SM BR VV007 13/13 A3013 RMK AO2 T01260126
K5A6 191035Z AUTO 00000KT 1 1/2SM BR VV007 13/13 A3013 RMK AO2 T01290129
K5A6 191015Z AUTO 17003KT 4SM BR CLR 13/13 A3013 RMK AO2 T01300130
K5A6 190950Z AUTO 00000KT 1 3/4SM BR VV007 13/13 A3012 RMK AO2 T01250125
K5A6 190935Z AUTO 00000KT 3/4SM BR BKN005 BKN011 13/13 A3012 RMK AO2 T01290129
K5A6 190915Z AUTO 00000KT 1/4SM FG BKN005 OVC011 12/12 A3011 RMK AO2 T01200120
K5A6 190855Z AUTO 00000KT 1/2SM FG VV005 13/13 A3011 RMK AO2 T01260126
K5A6 190835Z AUTO 00000KT 7SM CLR 13/13 A3011 RMK AO2 T01290129
K5A6 190815Z AUTO 00000KT 10SM CLR 14/14 A3011 RMK AO2 T01420142
K5A6 190755Z AUTO 17005KT 10SM CLR 14/14 A3010 RMK AO2 T01440144
K5A6 190735Z AUTO 17004KT 10SM CLR 14/14 A3010 RMK AO2 T01400140
K5A6 190715Z AUTO 15003KT 10SM CLR 14/14 A3010 RMK AO2 T01370137
K5A6 190655Z AUTO 17003KT 10SM CLR 14/14 A3010 RMK AO2 T01410141
K5A6 190635Z AUTO 17006KT 10SM CLR 14/14 A3010 RMK AO2 T01420142
K5A6 190615Z AUTO 16004KT 10SM CLR 14/14 A3010 RMK AO2 T01400140
K5A6 190555Z AUTO 17004KT 10SM CLR 14/14 A3010 RMK AO2 T01420142 10143 20125 401430070
K5A6 190535Z AUTO 16004KT 10SM CLR 14/14 A3010 RMK AO2 T01430143
K5A6 190515Z AUTO 16005KT 10SM CLR 14/14 A3009 RMK AO2 T01410141
K5A6 190455Z AUTO 15003KT 10SM CLR 14/14 A3009 RMK AO2 T01350135
K5A6 190435Z AUTO 00000KT 10SM CLR 13/13 A3010 RMK AO2 T01320132
K5A6 190415Z AUTO 15003KT 10SM CLR 13/13 A3010 RMK AO2 T01320132
K5A6 190355Z AUTO 16007KT 10SM SCT003 SCT007 13/13 A3009 RMK AO2 T01330133
K5A6 190335Z AUTO 15003KT 7SM BKN003 BKN007 13/13 A3011 RMK AO2 T01260126
K5A6 190315Z AUTO 00000KT 7SM OVC003 13/13 A3011 RMK AO2 T01270127
K5A6 190255Z AUTO 14005KT 7SM OVC003 13/13 A3012 RMK AO2 T01270127
K5A6 190235Z AUTO 13005KT 7SM OVC003 13/13 A3013 RMK AO2 T01260126
K5A6 190215Z AUTO 14004KT 7SM OVC005 13/13 A3013 RMK AO2 T01250125
K5A6 190155Z AUTO 15003KT 10SM OVC005 13/13 A3014 RMK AO2 T01260126
K5A6 190135Z AUTO 15003KT 10SM OVC007 13/13 A3014 RMK AO2 T01270127
K5A6 190115Z AUTO 15004KT 10SM OVC007 13/13 A3015 RMK AO2 T01270127
K5A6 190055Z AUTO 15004KT 10SM OVC007 13/13 A3015 RMK AO2 T01270127
K5A6 190035Z AUTO 16005KT 10SM OVC007 13/13 A3015 RMK AO2 T01260126
K5A6 190015Z AUTO 16005KT 10SM OVC007 13/13 A3015 RMK AO2 T01260126
K5A6 182355Z AUTO 16004KT 10SM OVC009 13/13 A3015 RMK AO2 T01260126 10127 20101
K5A6 182335Z AUTO 15005KT 10SM OVC009 13/13 A3015 RMK AO2 T01260125
K5A6 182315Z AUTO 17004KT 10SM OVC009 13/13 A3015 RMK AO2 T01260125
K5A6 182255Z AUTO 16004KT 10SM OVC009 13/12 A3015 RMK AO2 T01260122
K5A6 182235Z AUTO 18006KT 10SM OVC009 13/12 A3015 RMK AO2 T01250120
K5A6 182215Z AUTO 14004KT 10SM OVC009 12/12 A3015 RMK AO2 T01240120
K5A6 182155Z AUTO 18006KT 10SM OVC009 12/12 A3015 RMK AO2 T01230118
K5A6 182135Z AUTO 16006KT 10SM OVC009 12/12 A3015 RMK AO2 T01210116
K5A6 182115Z AUTO 16005KT 10SM OVC009 12/11 A3015 RMK AO2 T01190114
K5A6 182055Z AUTO 17008KT 10SM OVC009 12/11 A3015 RMK AO2 T01180113
K5A6 182035Z AUTO 16007KT 10SM OVC009 12/11 A3015 RMK AO2 T01150110
K5A6 182015Z AUTO 14006KT 10SM OVC009 12/11 A3016 RMK AO2 T01150110
K5A6 181955Z AUTO 14004KT 10SM OVC009 11/11 A3017 RMK AO2 T01130106
K5A6 181935Z AUTO 15003KT 10SM OVC009 11/10 A3017 RMK AO2 T01080102
K5A6 181915Z AUTO 13003KT 10SM OVC009 11/10 A3017 RMK AO2 T01070100
K5A6 181855Z AUTO 13004KT 10SM OVC009 11/10 A3018 RMK AO2 T01070100
K5A6 181835Z AUTO 14006KT 10SM OVC011 10/10 A3020 RMK AO2 T01020096
K5A6 181815Z AUTO 13006KT 10SM -RA OVC011 10/09 A3021 RMK AO2 T01010093
K5A6 181755Z AUTO 13004KT 10SM OVC011 10/09 A3022 RMK AO2 T01030090 10103 20070
K5A6 181735Z AUTO 13006KT 10SM OVC013 10/09 A3023 RMK AO2 T01020087
K5A6 181715Z AUTO 12007KT 10SM OVC013 10/08 A3023 RMK AO2 T01000084
K5A6 181655Z AUTO 14006KT 10SM OVC013 10/08 A3025 RMK AO2 T00990081
K5A6 181635Z AUTO 00000KT 10SM OVC013 10/08 A3025 RMK AO2 T00950079
K5A6 181615Z AUTO 08005KT 10SM OVC013 10/08 A3025 RMK AO2 T00950076
K5A6 181555Z AUTO 09005KT 10SM OVC013 09/08 A3024 RMK AO2 T00940076
K5A6 181535Z AUTO 12003KT 10SM OVC013 09/07 A3025 RMK AO2 T00900071
K5A6 181515Z AUTO 10004KT 10SM OVC013 09/07 A3025 RMK AO2 T00880070
K5A6 181455Z AUTO 09003KT 10SM OVC013 08/07 A3025 RMK AO2 T00840069
K5A6 181435Z AUTO 08003KT 10SM OVC013 08/07 A3025 RMK AO2 T00810067
K5A6 181415Z AUTO 08005KT 10SM OVC015 08/07 A3025 RMK AO2 T00770065
K5A6 181355Z AUTO 09004KT 10SM OVC015 07/06 A3025 RMK AO2 T00730062
K5A6 181335Z AUTO 05006KT 10SM OVC015 07/06 A3025 RMK AO2 T00720063
K5A6 181315Z AUTO 05005KT 10SM OVC015 07/06 A3025 RMK AO2 T00710064
K5A6 181255Z AUTO 06004KT 10SM OVC015 07/06 A3025 RMK AO2 T00710064
K5A6 181235Z AUTO 06004KT 10SM OVC015 07/06 A3025 RMK AO2 T00710062
K5A6 181215Z AUTO 07003KT 10SM OVC015 07/06 A3025 RMK AO2 T00710061
K5A6 181155Z AUTO 06004KT 10SM OVC015 07/06 A3024 RMK AO2 70055 T00720061 10082 20072
K5A6 181135Z AUTO 06005KT 10SM OVC015 07/06 A3024 RMK AO2 T00720062
K5A6 181115Z AUTO 06005KT 10SM OVC015 07/06 A3023 RMK AO2 T00730060
K5A6 181055Z AUTO 08004KT 10SM OVC015 07/06 A3023 RMK AO2 T00730062
K5A6 181035Z AUTO 05007KT 10SM OVC013 08/07 A3023 RMK AO2 T00750067
K5A6 181015Z AUTO 05005KT 10SM OVC015 08/07 A3023 RMK AO2 T00750066
K5A6 180955Z AUTO 06004KT 10SM OVC017 08/07 A3023 RMK AO2 T00750067
K5A6 180935Z AUTO 07003KT 10SM OVC015 08/07 A3023 RMK AO2 T00750067
K5A6 180915Z AUTO 04008KT 10SM OVC017 08/07 A3022 RMK AO2 T00770069
K5A6 180855Z AUTO 05005KT 10SM OVC017 08/07 A3023 RMK AO2 T00770067
K5A6 180835Z AUTO 05005KT 10SM OVC017 08/07 A3023 RMK AO2 T00780067
K5A6 180815Z AUTO 03009KT 10SM OVC017 08/07 A3023 RMK AO2 T00800068
K5A6 180755Z AUTO 05005KT 10SM OVC013 08/07 A3023 RMK AO2 T00800072
K5A6 180735Z AUTO 04005KT 10SM OVC015 08/07 A3023 RMK AO2 T00800073
K5A6 180715Z AUTO 05006KT 10SM OVC015 08/07 A3023 RMK AO2 T00800073
K5A6 180655Z AUTO 04005KT 10SM OVC015 08/08 A3023 RMK AO2 T00810075
K5A6 180635Z AUTO 03008KT 10SM OVC013 08/08 A3023 RMK AO2 T00810075
K5A6 180615Z AUTO 04007KT 10SM OVC011 08/08 A3023 RMK AO2 T00820075
K5A6 180555Z AUTO 03008KT 10SM OVC011 08/08 A3023 RMK AO2 60014 T00820077 10095 20082 401520082
K5A6 180535Z AUTO 03009KT 10SM OVC011 08/08 A3023 RMK AO2 T00820076
K5A6 180515Z AUTO 03008KT 10SM OVC009 08/08 A3023 RMK AO2 T00820079
K5A6 180455Z AUTO 02007KT 10SM OVC009 08/08 A3023 RMK AO2 T00830083
K5A6 180435Z AUTO 02007KT 10SM OVC009 08/08 A3023 RMK AO2 T00830081
K5A6 180415Z AUTO 01005KT 10SM OVC009 08/08 A3024 RMK AO2 T00830083
K5A6 180355Z AUTO 01006KT 10SM OVC009 08/08 A3024 RMK AO2 T00830083
K5A6 180335Z AUTO 36005KT 10SM OVC011 08/08 A3024 RMK AO2 T00830083
K5A6 180315Z AUTO 36006KT 10SM OVC009 09/09 A3023 RMK AO2 T00850085
K5A6 180255Z AUTO 01007KT 10SM OVC007 09/09 A3023 RMK AO2 60014 T00850085
K5A6 180235Z AUTO 01005KT 10SM OVC007 09/09 A3023 RMK AO2 T00850085
K5A6 180215Z AUTO 36006KT 10SM OVC007 09/09 A3023 RMK AO2 T00860086
K5A6 180155Z AUTO 35005KT 10SM OVC007 09/09 A3022 RMK AO2 P0001 T00870087
K5A6 180135Z AUTO 34006KT 10SM OVC007 09/09 A3021 RMK AO2 P0001 T00880088
K5A6 180115Z AUTO 32003KT 10SM -RA BKN007 BKN029 OVC041 09/09 A3022 RMK AO2 T00900090
K5A6 180055Z AUTO 33003KT 10SM -RA BKN007 BKN029 OVC040 09/09 A3020 RMK AO2 P0013 T00900090
K5A6 180035Z AUTO 00000KT 7SM +RA BKN009 BKN045 OVC075 09/09 A3020 RMK AO2 P0010 T00920092
K5A6 180015Z AUTO 32004KT 10SM RA SCT007 BKN011 OVC085 09/09 A3019 RMK AO2 P0004 T00920092
K5A6 172355Z AUTO 30004KT 5SM RA BKN007 BKN033 OVC044 10/10 A3018 RMK AO2 P0025 60041 T00950095 10151 20092
K5A6 172335Z AUTO 32006KT 4SM +RA BKN007 OVC033 10/10 A3017 RMK AO2 P0014 T00960096
K5A6 172315Z AUTO 00000KT 4SM RA OVC005 10/10 A3016 RMK AO2 P0004 T00970097
K5A6 172255Z AUTO 00000KT 3SM -RA OVC005 10/10 A3016 RMK AO2 P0005 T00990099
K5A6 172235Z AUTO 29003KT 4SM DZ BKN005 OVC011 10/10 A3015 RMK AO2 P0002 T00980098
K5A6 172215Z AUTO 00000KT 5SM DZ BKN005 BKN011 OVC014 10/10 A3013 RMK AO2 T00970097
K5A6 172155Z AUTO 00000KT 4SM +DZ BKN005 BKN019 OVC035 10/10 A3012 RMK AO2 P0010 T00950095
K5A6 172135Z AUTO 00000KT 4SM +RA SCT005 BKN026 OVC033 10/10 A3013 RMK AO2 P0008 T00950095
K5A6 172115Z AUTO 00000KT 3SM RA BKN005 BKN008 OVC025 09/09 A3012 RMK AO2 P0003 T00930093
K5A6 172055Z AUTO 31003KT 1 1/2SM -RA OVC005 09/09 A3013 RMK AO2 T00930093
K5A6 172035Z AUTO 34006KT 2 1/2SM BR OVC005 10/10 A3012 RMK AO2 T00960096
K5A6 172015Z AUTO 31005KT 5SM BR OVC005 10/10 A3012 RMK AO2 T00970097
K5A6 171955Z AUTO 32004KT 7SM OVC005 10/10 A3012 RMK AO2 T01030103
K5A6 171935Z AUTO 29009KT 10SM -RA OVC005 10/10 A3012 RMK AO2 T01040104
K5A6 171915Z AUTO 28006KT 10SM OVC005 12/12 A3010 RMK AO2 T01150115
K5A6 171855Z AUTO 30007KT 10SM OVC005 12/12 A3011 RMK AO2 T01190119
K5A6 171835Z AUTO 29009G14KT 10SM OVC007 13/13 A3010 RMK AO2 T01330131
K5A6 171815Z AUTO 24008KT 10SM OVC009 15/15 A3010 RMK AO2 T01500146
K5A6 171755Z AUTO 20007KT 10SM OVC007 15/15 A3008 RMK AO2 T01470146 10152 20087
K5A6 171735Z AUTO 23009KT 190V250 7SM OVC007 14/14 A3009 RMK AO2 T01410141
K5A6 171715Z AUTO 27010G17KT 4SM -RA OVC009 15/15 A3013 RMK AO2 T01480148
K5A6 171655Z AUTO 25008KT 10SM OVC009 15/15 A3012 RMK AO2 T01510151
K5A6 171635Z AUTO 21006KT 10SM OVC007 15/15 A3010 RMK AO2 T01470147
K5A6 171615Z AUTO 20006KT 10SM OVC003 14/14 A3010 RMK AO2 T01370137
K5A6 171555Z AUTO 20004KT 4SM BR OVC003 13/13 A3010 RMK AO2 T01300130
K5A6 171535Z AUTO 19010KT 3SM BR OVC003 12/12 A3008 RMK AO2 T01230123
K5A6 171515Z AUTO 19007KT 2SM BR OVC003 12/12 A3007 RMK AO2 T01170117
K5A6 171455Z AUTO 19007KT 2 1/2SM BR OVC003 11/11 A3008 RMK AO2 T01130113
K5A6 171435Z AUTO 20005KT 2 1/2SM BR OVC003 11/11 A3008 RMK AO2 T01090109
K5A6 171415Z AUTO 19007KT 3SM BR OVC005 11/11 A3007 RMK AO2 T01050105
K5A6 171355Z AUTO 18007KT 7SM OVC005 10/10 A3005 RMK AO2 T01000100
K5A6 171335Z AUTO 16008KT 10SM OVC005 10/10 A3004 RMK AO2 T00950095
K5A6 171315Z AUTO 16007KT 10SM OVC005 09/09 A3004 RMK AO2 T00920092
K5A6 171255Z AUTO 15003KT 10SM OVC007 09/09 A3004 RMK AO2 T00900090
K5A6 171235Z AUTO 15004KT 10SM OVC009 09/09 A3005 RMK AO2 T00890089
K5A6 171215Z AUTO 00000KT 10SM OVC012 09/09 A3005 RMK AO2 T00880088
K5A6 171150Z AUTO 00000KT 10SM DZ BKN010 OVC014 09/09 A3006 RMK AO2 P0001 60001 70003 T00870087 10087 20082
K5A6 171135Z AUTO 00000KT 10SM -RA OVC008 09/09 A3007 RMK AO2 T00870087
K5A6 171115Z AUTO 00000KT 10SM -DZ BKN008 OVC015 09/09 A3007 RMK AO2 T00870087
K5A6 171055Z AUTO 00000KT 10SM SCT006 OVC015 09/09 A3007 RMK AO2 T00860086
K5A6 171035Z AUTO 07003KT 10SM SCT006 OVC015 09/09 A3007 RMK AO2 T00860086
K5A6 171015Z AUTO 00000KT 10SM RA SCT007 OVC015 09/09 A3008 RMK AO2 T00860086
K5A6 170955Z AUTO 00000KT 10SM BKN009 OVC017 09/09 A3009 RMK AO2 T00860086
K5A6 170935Z AUTO 00000KT 10SM OVC009 09/09 A3010 RMK AO2 T00860086
K5A6 170915Z AUTO 00000KT 10SM OVC009 09/09 A3011 RMK AO2 T00850085
K5A6 170855Z AUTO 04004KT 10SM OVC009 09/09 A3011 RMK AO2 T00850085
K5A6 170835Z AUTO 05003KT 10SM OVC007 09/09 A3012 RMK AO2 T00850085
K5A6 170815Z AUTO 00000KT 10SM OVC007 09/09 A3012 RMK AO2 T00850085
K5A6 170755Z AUTO 00000KT 10SM BKN007 BKN037 OVC070 08/08 A3013 RMK AO2 T00830083
K5A6 170735Z AUTO 08003KT 10SM BKN007 BKN037 OVC070 08/08 A3012 RMK AO2 T00830083
K5A6 170715Z AUTO 08003KT 10SM OVC007 08/08 A3014 RMK AO2 T00830083
K5A6 170655Z AUTO 03007KT 10SM OVC009 08/08 A3015 RMK AO2 T00840084
K5A6 170635Z AUTO 03005KT 10SM OVC009 09/09 A3016 RMK AO2 T00850085
K5A6 170615Z AUTO 00000KT 10SM OVC009 08/08 A3016 RMK AO2 T00830083
K5A6 170555Z AUTO 05005KT 10SM OVC009 09/09 A3017 RMK AO2 T00850085 10103 20085 401900085
K5A6 170535Z AUTO 07004KT 10SM OVC009 09/09 A3017 RMK AO2 T00860085
K5A6 170515Z AUTO 06006KT 10SM OVC011 09/09 A3017 RMK AO2 T00870086
K5A6 170455Z AUTO 03005KT 10SM OVC011 09/09 A3020 RMK AO2 T00870086
K5A6 170435Z AUTO 01006KT 10SM -DZ OVC013 09/09 A3020 RMK AO2 T00900087
K5A6 170415Z AUTO 02006KT 10SM OVC013 09/09 A3021 RMK AO2 T00900089
K5A6 170355Z AUTO 36004KT 10SM OVC015 09/09 A3021 RMK AO2 T00900087